createdAt,value
2019-04-30T00:00:17.980Z,6.00
2019-04-30T00:01:17.635Z,6.00
2019-04-30T00:02:15.890Z,6.00
2019-04-30T00:03:15.930Z,6.00
2019-04-30T00:04:15.768Z,5.96
2019-04-30T00:05:17.135Z,5.98
2019-04-30T00:06:15.590Z,6.00
2019-04-30T00:07:17.424Z,5.98
2019-04-30T00:08:16.034Z,5.98
2019-04-30T00:09:17.061Z,6.00
2019-04-30T00:10:15.383Z,6.00
2019-04-30T00:11:15.953Z,6.00
2019-04-30T00:12:15.732Z,6.00
2019-04-30T00:13:17.783Z,6.00
2019-04-30T00:14:15.282Z,6.00
2019-04-30T00:15:17.871Z,6.00
2019-04-30T00:16:15.342Z,6.01
2019-04-30T00:17:15.863Z,6.01
2019-04-30T00:18:15.528Z,6.01
2019-04-30T00:19:15.740Z,6.01
2019-04-30T00:20:15.128Z,6.00
2019-04-30T00:21:15.105Z,6.01
2019-04-30T00:22:15.681Z,6.01
2019-04-30T00:23:13.613Z,6.01
2019-04-30T00:24:13.622Z,6.01
2019-04-30T00:25:15.216Z,6.01
2019-04-30T00:26:16.995Z,6.01
2019-04-30T00:27:15.117Z,6.01
2019-04-30T00:28:15.142Z,6.01
2019-04-30T00:29:19.167Z,6.03
2019-04-30T00:30:15.452Z,6.03
2019-04-30T00:31:17.347Z,6.01
2019-04-30T00:32:15.935Z,6.03
2019-04-30T00:33:15.231Z,6.03
2019-04-30T00:34:15.138Z,6.03
2019-04-30T00:35:16.217Z,6.03
2019-04-30T00:36:15.135Z,6.01
2019-04-30T00:37:15.169Z,6.03
2019-04-30T00:38:15.128Z,6.03
2019-04-30T00:39:14.921Z,6.01
2019-04-30T00:40:15.278Z,6.01
2019-04-30T00:41:13.391Z,6.00
2019-04-30T00:42:17.305Z,6.03
2019-04-30T00:43:15.578Z,6.03
2019-04-30T00:44:15.176Z,6.03
2019-04-30T00:45:15.333Z,6.03
2019-04-30T00:46:17.445Z,6.04
2019-04-30T00:47:15.455Z,6.04
2019-04-30T00:48:19.415Z,6.03
2019-04-30T00:49:18.550Z,6.04
2019-04-30T00:50:15.019Z,6.04
2019-04-30T00:51:17.823Z,6.03
2019-04-30T00:52:15.340Z,6.04
2019-04-30T00:53:14.807Z,6.04
2019-04-30T00:54:15.208Z,6.06
2019-04-30T00:55:14.894Z,6.07
2019-04-30T00:56:13.262Z,6.07
2019-04-30T00:57:14.788Z,6.07
2019-04-30T00:58:18.977Z,6.07
2019-04-30T00:59:15.126Z,6.04
2019-04-30T01:00:19.603Z,6.06
2019-04-30T01:01:15.290Z,6.07
2019-04-30T01:02:13.159Z,6.06
2019-04-30T01:03:13.188Z,6.07
2019-04-30T01:04:15.013Z,6.09
2019-04-30T01:05:13.133Z,6.09
2019-04-30T01:06:18.775Z,6.09
2019-04-30T01:07:15.545Z,6.09
2019-04-30T01:08:15.043Z,6.07
2019-04-30T01:09:13.131Z,6.07
2019-04-30T01:10:15.058Z,6.09
2019-04-30T01:11:13.060Z,6.07
2019-04-30T01:12:17.452Z,6.07
2019-04-30T01:13:14.028Z,6.07
2019-04-30T01:14:13.094Z,6.07
2019-04-30T01:15:14.446Z,6.07
2019-04-30T01:16:12.998Z,6.07
2019-04-30T01:17:13.035Z,6.07
2019-04-30T01:18:12.981Z,6.09
2019-04-30T01:19:27.195Z,6.07
2019-04-30T01:21:22.834Z,6.07
2019-04-30T01:22:28.148Z,6.09
2019-04-30T01:23:23.794Z,6.09
2019-04-30T01:24:23.382Z,6.07
2019-04-30T01:25:22.795Z,6.09
2019-04-30T01:26:22.950Z,6.09
2019-04-30T01:27:22.752Z,6.10
2019-04-30T01:28:24.185Z,6.11
2019-04-30T01:29:22.750Z,6.11
2019-04-30T01:30:22.989Z,6.10
2019-04-30T01:31:22.714Z,6.13
2019-04-30T01:32:22.702Z,6.11
2019-04-30T01:33:22.693Z,6.13
2019-04-30T01:34:22.673Z,6.13
2019-04-30T01:35:23.971Z,6.13
2019-04-30T01:36:22.674Z,6.13
2019-04-30T01:37:28.360Z,6.11
2019-04-30T01:38:23.630Z,6.13
2019-04-30T01:39:23.713Z,6.14
2019-04-30T01:40:23.619Z,6.13
2019-04-30T01:41:27.358Z,6.14
2019-04-30T01:42:23.592Z,6.14
2019-04-30T01:43:30.424Z,6.14
2019-04-30T01:44:23.576Z,6.14
2019-04-30T01:45:23.140Z,6.16
2019-04-30T01:46:22.563Z,6.16
2019-04-30T01:47:27.783Z,6.14
2019-04-30T01:48:23.523Z,6.14
2019-04-30T01:49:25.591Z,6.16
2019-04-30T01:50:22.500Z,6.13
2019-04-30T01:51:22.529Z,6.14
2019-04-30T01:52:22.470Z,6.14
2019-04-30T01:53:22.471Z,6.13
2019-04-30T01:54:24.407Z,6.14
2019-04-30T01:55:22.452Z,6.13
2019-04-30T01:56:22.449Z,6.11
2019-04-30T01:57:22.442Z,6.11
2019-04-30T01:58:22.408Z,6.10
2019-04-30T01:59:22.409Z,6.10
2019-04-30T02:00:22.389Z,6.10
2019-04-30T02:01:22.379Z,6.09
2019-04-30T02:02:22.396Z,6.09
2019-04-30T02:03:22.360Z,6.09
2019-04-30T02:04:22.349Z,6.09
2019-04-30T02:05:22.366Z,6.09
2019-04-30T02:06:22.318Z,6.10
2019-04-30T02:07:22.347Z,6.09
2019-04-30T02:08:22.304Z,6.10
2019-04-30T02:09:22.299Z,6.07
2019-04-30T02:10:22.307Z,6.09
2019-04-30T02:11:22.267Z,6.10
2019-04-30T02:12:22.269Z,6.10
2019-04-30T02:13:22.247Z,6.11
2019-04-30T02:14:22.235Z,6.11
2019-04-30T02:15:22.217Z,6.10
2019-04-30T02:16:22.212Z,6.11
2019-04-30T02:17:22.226Z,6.11
2019-04-30T02:18:22.187Z,6.13
2019-04-30T02:19:22.186Z,6.13
2019-04-30T02:20:22.170Z,6.14
2019-04-30T02:21:22.155Z,6.13
2019-04-30T02:22:22.167Z,6.13
2019-04-30T02:23:22.163Z,6.13
2019-04-30T02:24:22.177Z,6.14
2019-04-30T02:25:22.113Z,6.14
2019-04-30T02:26:22.122Z,6.16
2019-04-30T02:27:22.096Z,6.14
2019-04-30T02:28:22.125Z,6.16
2019-04-30T02:29:22.067Z,6.16
2019-04-30T02:30:22.064Z,6.18
2019-04-30T02:31:22.917Z,6.19
2019-04-30T02:32:22.050Z,6.19
2019-04-30T02:33:22.060Z,6.19
2019-04-30T02:34:22.374Z,6.21
2019-04-30T02:35:22.005Z,6.22
2019-04-30T02:36:21.994Z,6.19
2019-04-30T02:37:21.990Z,6.19
2019-04-30T02:38:21.990Z,6.19
2019-04-30T02:39:21.995Z,6.21
2019-04-30T02:40:21.970Z,6.21
2019-04-30T02:41:21.951Z,6.22
2019-04-30T02:42:21.936Z,6.22
2019-04-30T02:43:21.923Z,6.21
2019-04-30T02:44:21.937Z,6.19
2019-04-30T02:45:21.896Z,6.21
2019-04-30T02:46:21.881Z,6.21
2019-04-30T02:47:21.864Z,6.19
2019-04-30T02:48:21.863Z,6.21
2019-04-30T02:49:21.864Z,6.21
2019-04-30T02:50:22.626Z,6.21
2019-04-30T02:51:22.874Z,6.21
2019-04-30T02:52:21.812Z,6.21
2019-04-30T02:53:21.804Z,6.19
2019-04-30T02:54:23.954Z,6.19
2019-04-30T02:55:21.783Z,6.19
2019-04-30T02:56:21.772Z,6.19
2019-04-30T02:57:23.472Z,6.21
2019-04-30T02:58:21.755Z,6.21
2019-04-30T02:59:21.764Z,6.21
2019-04-30T03:00:21.724Z,6.19
2019-04-30T03:01:21.713Z,6.21
2019-04-30T03:02:21.702Z,6.19
2019-04-30T03:03:25.064Z,6.21
2019-04-30T03:04:21.726Z,6.21
2019-04-30T03:05:21.705Z,6.21
2019-04-30T03:06:23.817Z,6.21
2019-04-30T03:07:21.653Z,6.25
2019-04-30T03:08:21.633Z,6.22
2019-04-30T03:09:21.636Z,6.22
2019-04-30T03:10:21.632Z,6.22
2019-04-30T03:11:21.614Z,6.21
2019-04-30T03:12:21.626Z,6.21
2019-04-30T03:13:21.602Z,6.21
2019-04-30T03:14:21.594Z,6.19
2019-04-30T03:15:22.743Z,6.18
2019-04-30T03:16:21.551Z,6.19
2019-04-30T03:17:21.543Z,6.19
2019-04-30T03:18:23.149Z,6.18
2019-04-30T03:19:21.520Z,6.18
2019-04-30T03:20:34.683Z,6.18
2019-04-30T03:21:22.521Z,6.18
2019-04-30T03:22:21.490Z,6.18
2019-04-30T03:23:21.483Z,6.18
2019-04-30T03:24:21.460Z,6.18
2019-04-30T03:25:21.463Z,6.16
2019-04-30T03:26:21.451Z,6.18
2019-04-30T03:27:24.482Z,6.18
2019-04-30T03:28:21.419Z,6.16
2019-04-30T03:29:23.939Z,6.14
2019-04-30T03:30:22.240Z,6.14
2019-04-30T03:31:22.601Z,6.16
2019-04-30T03:32:22.813Z,6.14
2019-04-30T03:33:22.858Z,6.14
2019-04-30T03:34:25.761Z,6.16
2019-04-30T03:35:23.205Z,6.16
2019-04-30T03:36:22.306Z,6.16
2019-04-30T03:37:21.317Z,6.14
2019-04-30T03:38:21.309Z,6.16
2019-04-30T03:39:21.297Z,6.16
2019-04-30T03:40:21.306Z,6.16
2019-04-30T03:41:21.349Z,6.18
2019-04-30T03:42:21.268Z,6.18
2019-04-30T03:43:21.247Z,6.18
2019-04-30T03:44:25.355Z,6.16
2019-04-30T03:45:21.229Z,6.18
2019-04-30T03:46:21.239Z,6.19
2019-04-30T03:47:21.245Z,6.18
2019-04-30T03:48:21.198Z,6.19
2019-04-30T03:49:21.187Z,6.21
2019-04-30T03:50:21.172Z,6.21
2019-04-30T03:51:21.210Z,6.22
2019-04-30T03:52:21.163Z,6.22
2019-04-30T03:53:21.141Z,6.22
2019-04-30T03:54:21.126Z,6.25
2019-04-30T03:55:24.657Z,6.26
2019-04-30T03:56:22.897Z,6.26
2019-04-30T03:57:21.097Z,6.25
2019-04-30T03:58:21.587Z,6.26
2019-04-30T03:59:21.074Z,6.26
2019-04-30T04:00:21.084Z,6.26
2019-04-30T04:01:21.075Z,6.26
2019-04-30T04:02:21.091Z,6.26
2019-04-30T04:03:21.075Z,6.28
2019-04-30T04:04:21.017Z,6.26
2019-04-30T04:05:21.006Z,6.28
2019-04-30T04:06:21.522Z,6.28
2019-04-30T04:07:21.015Z,6.28
2019-04-30T04:08:20.978Z,6.28
2019-04-30T04:09:22.384Z,6.29
2019-04-30T04:10:20.943Z,6.28
2019-04-30T04:11:21.010Z,6.30
2019-04-30T04:12:20.943Z,6.32
2019-04-30T04:13:20.914Z,6.32
2019-04-30T04:14:20.906Z,6.33
2019-04-30T04:15:20.906Z,6.32
2019-04-30T04:16:20.888Z,6.33
2019-04-30T04:17:20.903Z,6.32
2019-04-30T04:18:20.918Z,6.33
2019-04-30T04:19:20.864Z,6.33
2019-04-30T04:20:20.845Z,6.33
2019-04-30T04:21:20.937Z,6.33
2019-04-30T04:22:20.952Z,6.36
2019-04-30T04:23:20.836Z,6.38
2019-04-30T04:24:20.792Z,6.36
2019-04-30T04:25:20.813Z,6.36
2019-04-30T04:26:20.772Z,6.36
2019-04-30T04:27:20.773Z,6.38
2019-04-30T04:28:20.764Z,6.35
2019-04-30T04:29:20.734Z,6.36
2019-04-30T04:30:20.749Z,6.38
2019-04-30T04:31:20.736Z,6.40
2019-04-30T04:32:24.145Z,6.36
2019-04-30T04:33:20.714Z,6.38
2019-04-30T04:34:20.684Z,6.38
2019-04-30T04:35:20.681Z,6.38
2019-04-30T04:36:20.664Z,6.38
2019-04-30T04:37:20.653Z,6.35
2019-04-30T04:38:20.693Z,6.36
2019-04-30T04:39:20.631Z,6.33
2019-04-30T04:40:21.270Z,6.35
2019-04-30T04:41:20.622Z,6.35
2019-04-30T04:42:20.619Z,6.35
2019-04-30T04:43:20.646Z,6.35
2019-04-30T04:44:20.687Z,6.35
2019-04-30T04:45:20.565Z,6.35
2019-04-30T04:46:20.744Z,6.36
2019-04-30T04:47:20.560Z,6.35
2019-04-30T04:48:23.147Z,6.33
2019-04-30T04:49:20.903Z,6.33
2019-04-30T04:50:20.499Z,6.33
2019-04-30T04:51:36.723Z,6.32
2019-04-30T04:52:22.222Z,6.32
2019-04-30T04:53:20.507Z,6.32
2019-04-30T04:54:20.523Z,6.32
2019-04-30T04:55:22.265Z,6.32
2019-04-30T04:56:20.440Z,6.30
2019-04-30T04:57:22.531Z,6.32
2019-04-30T04:58:21.691Z,6.32
2019-04-30T04:59:20.454Z,6.33
2019-04-30T05:00:20.401Z,6.35
2019-04-30T05:01:20.604Z,6.33
2019-04-30T05:02:20.385Z,6.33
2019-04-30T05:03:20.368Z,6.33
2019-04-30T05:04:20.388Z,6.36
2019-04-30T05:05:20.339Z,6.36
2019-04-30T05:06:21.769Z,6.36
2019-04-30T05:07:20.348Z,6.35
2019-04-30T05:08:20.307Z,6.33
2019-04-30T05:09:20.316Z,6.35
2019-04-30T05:10:20.556Z,6.33
2019-04-30T05:11:20.290Z,6.35
2019-04-30T05:12:20.267Z,6.35
2019-04-30T05:13:20.301Z,6.36
2019-04-30T05:14:20.266Z,6.35
2019-04-30T05:15:20.246Z,6.36
2019-04-30T05:16:20.246Z,6.38
2019-04-30T05:17:20.212Z,6.41
2019-04-30T05:18:22.677Z,6.41
2019-04-30T05:19:20.188Z,6.41
2019-04-30T05:20:20.209Z,6.43
2019-04-30T05:21:20.165Z,6.44
2019-04-30T05:22:20.148Z,6.44
2019-04-30T05:23:21.825Z,6.46
2019-04-30T05:24:20.129Z,6.47
2019-04-30T05:25:20.163Z,6.46
2019-04-30T05:26:22.688Z,6.44
2019-04-30T05:27:20.095Z,6.46
2019-04-30T05:28:20.083Z,6.47
2019-04-30T05:29:20.086Z,6.47
2019-04-30T05:30:20.082Z,6.48
2019-04-30T05:31:21.137Z,6.47
2019-04-30T05:32:20.035Z,6.47
2019-04-30T05:33:20.047Z,6.48
2019-04-30T05:34:20.042Z,6.50
2019-04-30T05:35:20.101Z,6.50
2019-04-30T05:36:20.015Z,6.51
2019-04-30T05:37:22.307Z,6.51
2019-04-30T05:38:19.985Z,6.53
2019-04-30T05:39:19.964Z,6.56
2019-04-30T05:40:19.954Z,6.54
2019-04-30T05:41:19.955Z,6.54
2019-04-30T05:42:19.934Z,6.54
2019-04-30T05:43:19.916Z,6.54
2019-04-30T05:44:19.909Z,6.53
2019-04-30T05:45:19.936Z,6.53
2019-04-30T05:46:20.035Z,6.53
2019-04-30T05:47:19.911Z,6.53
2019-04-30T05:48:19.862Z,6.54
2019-04-30T05:49:20.495Z,6.53
2019-04-30T05:50:20.121Z,6.53
2019-04-30T05:51:21.328Z,6.51
2019-04-30T05:52:20.095Z,6.51
2019-04-30T05:53:19.863Z,6.50
2019-04-30T05:54:19.807Z,6.51
2019-04-30T05:55:19.993Z,6.51
2019-04-30T05:56:19.837Z,6.51
2019-04-30T05:57:19.846Z,6.51
2019-04-30T05:58:19.979Z,6.50
2019-04-30T05:59:20.655Z,6.51
2019-04-30T06:00:19.734Z,6.53
2019-04-30T06:01:19.800Z,6.51
2019-04-30T06:02:19.722Z,6.50
2019-04-30T06:03:28.127Z,6.50
2019-04-30T06:04:20.760Z,6.51
2019-04-30T06:05:19.689Z,6.53
2019-04-30T06:06:19.689Z,6.50
2019-04-30T06:07:19.651Z,6.51
2019-04-30T06:08:19.642Z,6.50
2019-04-30T06:09:31.114Z,6.50
2019-04-30T06:10:20.619Z,6.51
2019-04-30T06:11:19.630Z,6.53
2019-04-30T06:12:20.294Z,6.53
2019-04-30T06:13:19.630Z,6.53
2019-04-30T06:14:19.582Z,6.54
2019-04-30T06:15:19.575Z,6.53
2019-04-30T06:16:19.584Z,6.54
2019-04-30T06:17:19.832Z,6.54
2019-04-30T06:18:20.448Z,6.54
2019-04-30T06:19:19.652Z,6.56
2019-04-30T06:20:21.022Z,6.56
2019-04-30T06:21:21.604Z,6.56
2019-04-30T06:22:19.502Z,6.54
2019-04-30T06:23:19.566Z,6.56
2019-04-30T06:24:19.503Z,6.54
2019-04-30T06:25:28.380Z,6.54
2019-04-30T06:26:20.808Z,6.56
2019-04-30T06:27:19.505Z,6.54
2019-04-30T06:28:19.643Z,6.54
2019-04-30T06:29:19.417Z,6.56
2019-04-30T06:30:19.858Z,6.58
2019-04-30T06:31:31.667Z,6.54
2019-04-30T06:32:20.453Z,6.54
2019-04-30T06:33:19.431Z,6.54
2019-04-30T06:34:19.790Z,6.53
2019-04-30T06:35:19.510Z,6.56
2019-04-30T06:36:19.381Z,6.58
2019-04-30T06:37:19.575Z,6.61
2019-04-30T06:38:19.309Z,6.59
2019-04-30T06:39:19.306Z,6.59
2019-04-30T06:40:19.692Z,6.61
2019-04-30T06:41:19.829Z,6.62
2019-04-30T06:42:19.518Z,6.62
2019-04-30T06:43:19.265Z,6.61
2019-04-30T06:44:19.551Z,6.61
2019-04-30T06:45:19.305Z,6.61
2019-04-30T06:46:19.255Z,6.59
2019-04-30T06:47:32.126Z,6.59
2019-04-30T06:48:20.306Z,6.58
2019-04-30T06:49:19.465Z,6.58
2019-04-30T06:50:19.501Z,6.58
2019-04-30T06:51:19.167Z,6.61
2019-04-30T06:52:22.988Z,6.62
2019-04-30T06:53:19.351Z,6.62
2019-04-30T06:54:19.275Z,6.63
2019-04-30T06:55:19.421Z,6.62
2019-04-30T06:56:19.129Z,6.62
2019-04-30T06:57:19.926Z,6.63
2019-04-30T06:58:20.525Z,6.63
2019-04-30T06:59:20.361Z,6.63
2019-04-30T07:00:20.782Z,6.65
2019-04-30T07:01:20.055Z,6.63
2019-04-30T07:02:19.685Z,6.65
2019-04-30T07:03:19.313Z,6.65
2019-04-30T07:04:19.480Z,6.66
2019-04-30T07:05:19.044Z,6.63
2019-04-30T07:06:29.122Z,6.65
2019-04-30T07:07:23.109Z,6.68
2019-04-30T07:08:19.094Z,6.68
2019-04-30T07:09:19.709Z,6.71
2019-04-30T07:10:20.491Z,6.73
2019-04-30T07:11:19.521Z,6.77
2019-04-30T07:12:27.364Z,6.76
2019-04-30T07:13:19.933Z,6.77
2019-04-30T07:14:19.574Z,6.77
2019-04-30T07:15:19.647Z,6.79
2019-04-30T07:16:19.119Z,6.80
2019-04-30T07:17:19.567Z,6.81
2019-04-30T07:18:19.045Z,6.80
2019-04-30T07:19:29.923Z,6.83
2019-04-30T07:21:29.417Z,6.84
2019-04-30T07:22:37.612Z,6.84
2019-04-30T07:23:29.691Z,6.86
2019-04-30T07:24:29.612Z,6.87
2019-04-30T07:25:29.340Z,6.86
2019-04-30T07:26:29.014Z,6.83
2019-04-30T07:27:30.133Z,6.86
2019-04-30T07:28:43.706Z,6.84
2019-04-30T07:29:29.698Z,6.86
2019-04-30T07:30:30.618Z,6.86
2019-04-30T07:31:29.519Z,6.87
2019-04-30T07:32:28.951Z,6.89
2019-04-30T07:33:29.559Z,6.94
2019-04-30T07:34:30.261Z,6.98
2019-04-30T07:35:29.580Z,6.99
2019-04-30T07:36:43.468Z,7.01
2019-04-30T07:37:29.589Z,7.02
2019-04-30T07:38:29.543Z,7.05
2019-04-30T07:39:32.058Z,7.05
2019-04-30T07:40:29.223Z,7.02
2019-04-30T07:41:30.808Z,7.02
2019-04-30T07:42:29.411Z,7.01
2019-04-30T07:43:28.919Z,6.97
2019-04-30T07:44:34.921Z,6.98
2019-04-30T07:45:31.938Z,6.98
2019-04-30T07:46:29.967Z,6.97
2019-04-30T07:47:29.584Z,6.98
2019-04-30T07:48:29.797Z,7.01
2019-04-30T07:50:31.263Z,7.01
2019-04-30T07:51:32.029Z,7.01
2019-04-30T07:52:33.324Z,7.01
2019-04-30T07:53:30.808Z,7.01
2019-04-30T07:54:30.047Z,7.02
2019-04-30T07:55:29.563Z,7.01
2019-04-30T07:56:33.393Z,7.04
2019-04-30T07:57:32.252Z,7.05
2019-04-30T07:58:29.866Z,7.05
2019-04-30T07:59:30.157Z,7.08
2019-04-30T08:00:31.010Z,7.12
2019-04-30T08:01:29.484Z,7.08
2019-04-30T08:02:29.726Z,7.12
2019-04-30T08:03:30.158Z,7.08
2019-04-30T08:04:30.041Z,7.08
2019-04-30T08:05:29.910Z,7.05
2019-04-30T08:06:31.129Z,7.05
2019-04-30T08:07:29.826Z,7.07
2019-04-30T08:08:30.177Z,7.08
2019-04-30T08:09:35.521Z,7.01
2019-04-30T08:09:38.750Z,7.09
2019-04-30T08:10:29.699Z,7.08
2019-04-30T08:11:29.316Z,7.07
2019-04-30T08:12:33.703Z,7.05
2019-04-30T08:13:32.453Z,7.07
2019-04-30T08:14:28.802Z,7.07
2019-04-30T08:15:29.574Z,7.05
2019-04-30T08:16:28.750Z,7.04
2019-04-30T08:17:28.896Z,7.02
2019-04-30T08:18:29.510Z,6.99
2019-04-30T08:19:28.699Z,7.02
2019-04-30T08:20:29.565Z,7.04
2019-04-30T08:21:28.762Z,7.08
2019-04-30T08:22:29.726Z,7.09
2019-04-30T08:23:34.793Z,7.15
2019-04-30T08:24:29.237Z,7.16
2019-04-30T08:25:29.113Z,7.17
2019-04-30T08:26:28.692Z,7.19
2019-04-30T08:27:29.612Z,7.20
2019-04-30T08:28:30.198Z,7.22
2019-04-30T08:29:29.498Z,7.20
2019-04-30T08:30:29.980Z,7.19
2019-04-30T08:31:29.207Z,7.17
2019-04-30T08:32:29.017Z,7.22
2019-04-30T08:33:29.175Z,7.20
2019-04-30T08:34:29.229Z,7.17
2019-04-30T08:35:29.647Z,7.20
2019-04-30T08:36:29.737Z,7.23
2019-04-30T08:37:28.858Z,7.23
2019-04-30T08:38:29.939Z,7.24
2019-04-30T08:39:29.531Z,7.27
2019-04-30T08:40:29.637Z,7.31
2019-04-30T08:41:29.233Z,7.31
2019-04-30T08:42:31.765Z,7.34
2019-04-30T08:43:29.293Z,7.34
2019-04-30T08:44:29.478Z,7.29
2019-04-30T08:45:31.469Z,7.32
2019-04-30T08:46:28.868Z,7.35
2019-04-30T08:47:29.171Z,7.35
2019-04-30T08:48:43.631Z,7.38
2019-04-30T08:49:30.557Z,7.38
2019-04-30T08:50:29.719Z,7.38
2019-04-30T08:51:28.938Z,7.34
2019-04-30T08:52:27.722Z,7.32
2019-04-30T08:53:32.956Z,7.37
2019-04-30T08:54:29.520Z,7.34
2019-04-30T08:55:27.686Z,7.34
2019-04-30T08:56:29.518Z,7.34
2019-04-30T08:57:29.347Z,7.34
2019-04-30T08:58:29.243Z,7.37
2019-04-30T08:59:29.422Z,7.37
2019-04-30T09:00:29.601Z,7.40
2019-04-30T09:01:29.406Z,7.40
2019-04-30T09:02:28.991Z,7.40
2019-04-30T09:03:29.492Z,7.38
2019-04-30T09:04:29.091Z,7.38
2019-04-30T09:05:28.710Z,7.40
2019-04-30T09:06:29.088Z,7.38
2019-04-30T09:07:29.668Z,7.38
2019-04-30T09:08:29.314Z,7.40
2019-04-30T09:09:29.440Z,7.37
2019-04-30T09:10:29.287Z,7.37
2019-04-30T09:11:33.845Z,7.40
2019-04-30T09:12:29.946Z,7.45
2019-04-30T09:13:28.702Z,7.47
2019-04-30T09:14:29.543Z,7.52
2019-04-30T09:15:29.082Z,7.56
2019-04-30T09:16:29.361Z,7.59
2019-04-30T09:17:29.586Z,7.62
2019-04-30T09:18:29.179Z,7.67
2019-04-30T09:19:29.567Z,7.71
2019-04-30T09:20:29.053Z,7.69
2019-04-30T09:21:27.407Z,7.72
2019-04-30T09:22:29.240Z,7.77
2019-04-30T09:23:34.332Z,7.77
2019-04-30T09:24:30.689Z,7.78
2019-04-30T09:25:28.728Z,7.79
2019-04-30T09:26:29.056Z,7.78
2019-04-30T09:27:29.445Z,7.75
2019-04-30T09:28:29.322Z,7.75
2019-04-30T09:29:29.104Z,7.78
2019-04-30T09:30:27.305Z,7.77
2019-04-30T09:31:29.388Z,7.78
2019-04-30T09:32:29.041Z,7.75
2019-04-30T09:33:29.294Z,7.71
2019-04-30T09:34:29.108Z,7.74
2019-04-30T09:35:29.589Z,7.69
2019-04-30T09:36:29.066Z,7.72
2019-04-30T09:37:27.228Z,7.75
2019-04-30T09:38:28.945Z,7.78
2019-04-30T09:39:29.332Z,7.84
2019-04-30T09:40:30.257Z,7.89
2019-04-30T09:41:28.784Z,7.97
2019-04-30T09:42:29.478Z,8.00
2019-04-30T09:43:28.632Z,8.07
2019-04-30T09:44:30.509Z,8.12
2019-04-30T09:45:28.543Z,8.18
2019-04-30T09:46:29.253Z,8.28
2019-04-30T09:47:27.116Z,8.40
2019-04-30T09:48:30.333Z,8.57
2019-04-30T09:49:27.108Z,8.75
2019-04-30T09:50:28.963Z,8.88
2019-04-30T09:51:27.791Z,9.05
2019-04-30T09:52:30.231Z,9.23
2019-04-30T09:53:27.045Z,9.25
2019-04-30T09:54:28.922Z,9.25
2019-04-30T09:55:28.923Z,9.24
2019-04-30T09:56:27.009Z,9.24
2019-04-30T09:57:28.882Z,9.43
2019-04-30T09:58:27.000Z,9.52
2019-04-30T09:59:28.962Z,9.57
2019-04-30T10:00:26.986Z,9.57
2019-04-30T10:01:26.959Z,9.56
2019-04-30T10:02:28.939Z,9.56
2019-04-30T10:03:27.203Z,9.60
2019-04-30T10:04:27.856Z,9.66
2019-04-30T10:05:28.725Z,9.56
2019-04-30T10:06:39.091Z,9.50
2019-04-30T10:07:29.342Z,9.53
2019-04-30T10:08:27.093Z,9.57
2019-04-30T10:09:26.868Z,9.66
2019-04-30T10:10:28.803Z,9.68
2019-04-30T10:11:26.858Z,9.76
2019-04-30T10:12:26.850Z,9.89
2019-04-30T10:13:26.853Z,9.89
2019-04-30T10:14:26.826Z,9.93
2019-04-30T10:15:28.839Z,9.97
2019-04-30T10:16:26.806Z,10.04
2019-04-30T10:17:26.785Z,10.12
2019-04-30T10:18:26.810Z,10.21
2019-04-30T10:19:26.762Z,10.36
2019-04-30T10:20:26.761Z,10.44
2019-04-30T10:21:26.756Z,10.55
2019-04-30T10:22:26.776Z,10.47
2019-04-30T10:23:26.737Z,10.44
2019-04-30T10:24:26.713Z,10.42
2019-04-30T10:25:26.698Z,10.32
2019-04-30T10:26:26.719Z,10.25
2019-04-30T10:27:29.151Z,10.15
2019-04-30T10:28:26.656Z,10.09
2019-04-30T10:29:26.657Z,10.07
2019-04-30T10:30:26.644Z,10.04
2019-04-30T10:31:26.657Z,10.06
2019-04-30T10:32:26.616Z,10.09
2019-04-30T10:33:28.572Z,10.18
2019-04-30T10:34:26.597Z,10.28
2019-04-30T10:35:28.470Z,10.37
2019-04-30T10:36:29.371Z,10.46
2019-04-30T10:37:28.618Z,10.53
2019-04-30T10:38:26.582Z,10.63
2019-04-30T10:39:26.552Z,10.68
2019-04-30T10:40:28.565Z,10.73
2019-04-30T10:41:28.615Z,10.70
2019-04-30T10:42:28.724Z,10.73
2019-04-30T10:43:26.506Z,10.65
2019-04-30T10:44:26.486Z,10.65
2019-04-30T10:45:28.642Z,10.62
2019-04-30T10:46:26.507Z,10.66
2019-04-30T10:47:26.462Z,10.71
2019-04-30T10:48:26.445Z,10.66
2019-04-30T10:49:26.434Z,10.66
2019-04-30T10:50:26.415Z,10.65
2019-04-30T10:51:26.428Z,10.65
2019-04-30T10:52:26.422Z,10.62
2019-04-30T10:53:26.399Z,10.59
2019-04-30T10:54:27.025Z,10.58
2019-04-30T10:55:26.363Z,10.59
2019-04-30T10:56:26.354Z,10.51
2019-04-30T10:57:28.376Z,10.43
2019-04-30T10:58:26.334Z,10.40
2019-04-30T10:59:26.337Z,10.37
2019-04-30T11:00:26.337Z,10.40
2019-04-30T11:01:26.296Z,10.43
2019-04-30T11:02:26.325Z,10.51
2019-04-30T11:03:26.273Z,10.52
2019-04-30T11:04:26.277Z,10.43
2019-04-30T11:05:26.253Z,10.40
2019-04-30T11:06:26.274Z,10.36
2019-04-30T11:07:26.246Z,10.46
2019-04-30T11:08:26.224Z,10.58
2019-04-30T11:09:26.204Z,10.68
2019-04-30T11:10:26.220Z,10.71
2019-04-30T11:11:26.225Z,10.76
2019-04-30T11:12:26.207Z,10.83
2019-04-30T11:13:26.163Z,10.92
2019-04-30T11:14:26.177Z,11.02
2019-04-30T11:15:26.149Z,11.17
2019-04-30T11:16:26.134Z,11.34
2019-04-30T11:17:26.363Z,11.39
2019-04-30T11:18:26.316Z,11.49
2019-04-30T11:19:26.227Z,11.49
2019-04-30T11:20:26.388Z,11.56
2019-04-30T11:21:26.278Z,11.56
2019-04-30T11:22:26.193Z,11.54
2019-04-30T11:23:26.248Z,11.53
2019-04-30T11:24:35.808Z,11.50
2019-04-30T11:25:27.751Z,11.41
2019-04-30T11:26:26.510Z,11.21
2019-04-30T11:27:26.419Z,11.10
2019-04-30T11:28:26.733Z,11.07
2019-04-30T11:29:26.183Z,11.07
2019-04-30T11:30:26.243Z,11.06
2019-04-30T11:31:26.200Z,10.99
2019-04-30T11:32:26.167Z,10.92
2019-04-30T11:33:26.061Z,10.95
2019-04-30T11:34:28.150Z,10.99
2019-04-30T11:35:25.923Z,11.11
2019-04-30T11:36:25.951Z,11.21
2019-04-30T11:37:25.905Z,11.25
2019-04-30T11:38:25.911Z,11.27
2019-04-30T11:39:25.921Z,11.25
2019-04-30T11:40:34.433Z,11.20
2019-04-30T11:41:32.443Z,11.20
2019-04-30T11:42:26.862Z,11.20
2019-04-30T11:43:25.851Z,11.20
2019-04-30T11:44:30.770Z,11.14
2019-04-30T11:45:26.813Z,11.14
2019-04-30T11:46:25.802Z,11.13
2019-04-30T11:47:25.788Z,11.11
2019-04-30T11:48:25.773Z,11.06
2019-04-30T11:49:25.783Z,11.03
2019-04-30T11:50:25.761Z,11.09
2019-04-30T11:51:27.042Z,11.11
2019-04-30T11:52:25.769Z,11.17
2019-04-30T11:53:30.149Z,11.29
2019-04-30T11:54:25.745Z,11.49
2019-04-30T11:55:25.716Z,11.70
2019-04-30T11:56:25.690Z,11.87
2019-04-30T11:57:25.684Z,12.08
2019-04-30T11:58:25.672Z,12.16
2019-04-30T11:59:25.653Z,12.26
2019-04-30T12:00:25.702Z,12.30
2019-04-30T12:01:25.655Z,12.33
2019-04-30T12:02:25.625Z,12.38
2019-04-30T12:03:25.632Z,12.42
2019-04-30T12:04:25.602Z,12.51
2019-04-30T12:05:25.623Z,12.63
2019-04-30T12:06:25.592Z,12.74
2019-04-30T12:07:25.581Z,12.71
2019-04-30T12:08:26.568Z,12.77
2019-04-30T12:09:25.560Z,12.64
2019-04-30T12:10:25.549Z,12.64
2019-04-30T12:11:25.544Z,12.63
2019-04-30T12:12:25.536Z,12.54
2019-04-30T12:13:25.516Z,12.56
2019-04-30T12:14:25.505Z,12.59
2019-04-30T12:15:25.480Z,12.56
2019-04-30T12:16:25.473Z,12.59
2019-04-30T12:17:25.482Z,12.63
2019-04-30T12:18:25.471Z,12.69
2019-04-30T12:19:25.446Z,12.63
2019-04-30T12:20:25.425Z,12.62
2019-04-30T12:21:25.411Z,12.56
2019-04-30T12:22:25.404Z,12.39
2019-04-30T12:23:25.414Z,12.31
2019-04-30T12:24:25.404Z,12.20
2019-04-30T12:25:25.375Z,12.12
2019-04-30T12:26:25.363Z,12.12
2019-04-30T12:27:25.352Z,12.23
2019-04-30T12:28:27.316Z,12.33
2019-04-30T12:29:25.363Z,12.45
2019-04-30T12:30:25.343Z,12.51
2019-04-30T12:31:25.330Z,12.54
2019-04-30T12:32:25.301Z,12.54
2019-04-30T12:33:25.290Z,12.45
2019-04-30T12:34:25.293Z,12.51
2019-04-30T12:35:25.291Z,12.57
2019-04-30T12:36:25.301Z,12.59
2019-04-30T12:37:25.261Z,12.63
2019-04-30T12:38:25.240Z,12.60
2019-04-30T12:39:25.242Z,12.49
2019-04-30T12:40:29.451Z,12.48
2019-04-30T12:41:26.211Z,12.52
2019-04-30T12:42:25.217Z,12.48
2019-04-30T12:43:25.172Z,12.54
2019-04-30T12:44:25.162Z,12.62
2019-04-30T12:45:25.140Z,12.69
2019-04-30T12:46:25.150Z,12.74
2019-04-30T12:47:25.130Z,12.71
2019-04-30T12:48:25.127Z,12.77
2019-04-30T12:49:25.104Z,12.78
2019-04-30T12:50:25.141Z,12.85
2019-04-30T12:51:25.141Z,12.93
2019-04-30T12:52:25.110Z,12.95
2019-04-30T12:53:25.100Z,12.93
2019-04-30T12:54:25.051Z,12.81
2019-04-30T12:55:25.044Z,12.63
2019-04-30T12:56:27.057Z,12.62
2019-04-30T12:57:25.020Z,12.60
2019-04-30T12:58:25.012Z,12.57
2019-04-30T12:59:24.991Z,12.51
2019-04-30T13:00:24.982Z,12.52
2019-04-30T13:01:24.981Z,12.49
2019-04-30T13:02:24.970Z,12.46
2019-04-30T13:03:24.954Z,12.41
2019-04-30T13:04:24.964Z,12.33
2019-04-30T13:05:24.943Z,12.29
2019-04-30T13:06:25.557Z,12.24
2019-04-30T13:07:25.441Z,12.20
2019-04-30T13:08:25.493Z,12.24
2019-04-30T13:09:25.315Z,12.27
2019-04-30T13:10:25.294Z,12.38
2019-04-30T13:11:25.460Z,12.41
2019-04-30T13:12:25.412Z,12.39
2019-04-30T13:13:25.310Z,12.42
2019-04-30T13:14:25.496Z,12.41